Nanson, North Dakota
Current Conditions -  °F | °C
As of 11:55 AM on Friday 24 Oct 2014 (Local Time) from KRUG Reporting Station
Clear Clear  
Wind Chill: 63°   Ceiling: Unl
Heat Index: 63°   Visibility: 10mi
Dew Point: 39°   Wind: 26mph
Humidity: 42%   Direction: 290°WNW
Pressure: 29.8"   Gusts: 32mph
Location:  48.632°N, 99.9505°W
Report Text: KRUG 241655Z AUTO 29023G28KT 10SM CLR 17/04 A2980 RMK AO2
Loading
Personal Weather Stations






























Interactive Weather Map
Tropical Storm Tracking
New forecast layout! Learn more

10-Day Weather Forecast

Advertisements
Track Severe Weather on mobile